Ferme-Neuve, Canada
Current Conditions -  °F | °C
As of 11:00 AM on Saturday 25 Oct 2014 (Local Time) from CYND Reporting Station
Clear Clear  
Wind Chill: 48°   Ceiling: Unl
Heat Index: 48°   Visibility: 15mi
Dew Point: 41°   Wind: 2mph
Humidity: 76%   Direction: 160°SSE
Pressure: 29.65"   Gusts: NA
Location:  46.7°N, 75.45°W
Report Text: CYND 251500Z 16002KT 15SM 09/05 A2965 RMK PRESFR SLP041
Loading
Personal Weather Stations






























Interactive Weather Map New forecast layout! Learn more

10-Day Weather Forecast

Advertisements
Track Severe Weather on mobile